sensor_id;sensor_type;location;lat;lon;timestamp;P1;durP1;ratioP1;P2;durP2;ratioP2
920;SDS011;447;51.332;6.778;2023-02-15T00:00:08;16.80;;;12.10;;
920;SDS011;447;51.332;6.778;2023-02-15T00:02:38;17.83;;;12.30;;
920;SDS011;447;51.332;6.778;2023-02-15T00:05:04;17.40;;;12.27;;
920;SDS011;447;51.332;6.778;2023-02-15T00:07:30;18.80;;;11.80;;
920;SDS011;447;51.332;6.778;2023-02-15T00:09:56;19.67;;;12.40;;
920;SDS011;447;51.332;6.778;2023-02-15T00:12:22;19.73;;;12.67;;
920;SDS011;447;51.332;6.778;2023-02-15T00:14:48;19.10;;;12.03;;
920;SDS011;447;51.332;6.778;2023-02-15T00:17:16;17.27;;;11.83;;
920;SDS011;447;51.332;6.778;2023-02-15T00:19:46;19.43;;;12.63;;
920;SDS011;447;51.332;6.778;2023-02-15T00:22:12;16.67;;;11.50;;
920;SDS011;447;51.332;6.778;2023-02-15T00:24:40;17.23;;;12.17;;
920;SDS011;447;51.332;6.778;2023-02-15T00:27:06;17.30;;;12.10;;
920;SDS011;447;51.332;6.778;2023-02-15T00:29:34;16.10;;;12.37;;
920;SDS011;447;51.332;6.778;2023-02-15T00:32:00;18.47;;;12.23;;
920;SDS011;447;51.332;6.778;2023-02-15T00:34:28;19.23;;;13.07;;
920;SDS011;447;51.332;6.778;2023-02-15T00:36:59;19.67;;;13.00;;
920;SDS011;447;51.332;6.778;2023-02-15T00:39:25;19.33;;;13.00;;
920;SDS011;447;51.332;6.778;2023-02-15T00:41:52;18.43;;;12.23;;
920;SDS011;447;51.332;6.778;2023-02-15T00:44:20;17.77;;;12.37;;
920;SDS011;447;51.332;6.778;2023-02-15T00:46:49;21.37;;;13.80;;
920;SDS011;447;51.332;6.778;2023-02-15T00:49:19;20.67;;;12.50;;
920;SDS011;447;51.332;6.778;2023-02-15T00:51:48;20.67;;;12.50;;
920;SDS011;447;51.332;6.778;2023-02-15T00:54:16;20.30;;;13.20;;
920;SDS011;447;51.332;6.778;2023-02-15T00:56:45;19.47;;;13.93;;
920;SDS011;447;51.332;6.778;2023-02-15T00:59:11;20.40;;;13.00;;
920;SDS011;447;51.332;6.778;2023-02-15T01:01:37;18.70;;;12.47;;
920;SDS011;447;51.332;6.778;2023-02-15T01:04:05;19.90;;;12.93;;
920;SDS011;447;51.332;6.778;2023-02-15T01:06:34;20.97;;;13.40;;
920;SDS011;447;51.332;6.778;2023-02-15T01:09:00;20.23;;;12.20;;
920;SDS011;447;51.332;6.778;2023-02-15T01:11:26;20.80;;;13.10;;
920;SDS011;447;51.332;6.778;2023-02-15T01:13:53;20.83;;;13.33;;
920;SDS011;447;51.332;6.778;2023-02-15T01:16:22;22.83;;;13.67;;
920;SDS011;447;51.332;6.778;2023-02-15T01:18:50;20.47;;;13.40;;
920;SDS011;447;51.332;6.778;2023-02-15T01:21:21;24.43;;;15.43;;
920;SDS011;447;51.332;6.778;2023-02-15T01:23:49;19.67;;;13.30;;
920;SDS011;447;51.332;6.778;2023-02-15T01:26:18;16.50;;;12.10;;
920;SDS011;447;51.332;6.778;2023-02-15T01:28:46;17.80;;;13.50;;
920;SDS011;447;51.332;6.778;2023-02-15T01:31:16;18.00;;;13.53;;
920;SDS011;447;51.332;6.778;2023-02-15T01:33:49;19.13;;;13.23;;
920;SDS011;447;51.332;6.778;2023-02-15T01:36:18;20.77;;;13.30;;
920;SDS011;447;51.332;6.778;2023-02-15T01:38:46;19.17;;;13.23;;
920;SDS011;447;51.332;6.778;2023-02-15T01:41:14;21.33;;;13.30;;
920;SDS011;447;51.332;6.778;2023-02-15T01:43:58;22.10;;;14.57;;
920;SDS011;447;51.332;6.778;2023-02-15T01:46:27;23.00;;;14.73;;
920;SDS011;447;51.332;6.778;2023-02-15T01:49:06;22.80;;;14.07;;
920;SDS011;447;51.332;6.778;2023-02-15T01:51:46;24.03;;;14.10;;
920;SDS011;447;51.332;6.778;2023-02-15T01:54:21;20.30;;;13.57;;
920;SDS011;447;51.332;6.778;2023-02-15T01:56:56;23.50;;;13.77;;
920;SDS011;447;51.332;6.778;2023-02-15T01:59:29;24.97;;;16.73;;
920;SDS011;447;51.332;6.778;2023-02-15T02:01:59;18.30;;;12.50;;
920;SDS011;447;51.332;6.778;2023-02-15T02:04:38;20.10;;;13.80;;
920;SDS011;447;51.332;6.778;2023-02-15T02:07:19;18.40;;;12.30;;
920;SDS011;447;51.332;6.778;2023-02-15T02:09:47;22.20;;;15.07;;
920;SDS011;447;51.332;6.778;2023-02-15T02:12:16;20.90;;;13.70;;
920;SDS011;447;51.332;6.778;2023-02-15T02:14:46;19.63;;;13.93;;
920;SDS011;447;51.332;6.778;2023-02-15T02:23:06;24.40;;;14.33;;
920;SDS011;447;51.332;6.778;2023-02-15T02:37:03;21.37;;;13.67;;
920;SDS011;447;51.332;6.778;2023-02-15T02:42:12;23.10;;;14.07;;
920;SDS011;447;51.332;6.778;2023-02-15T02:44:54;19.87;;;13.63;;
920;SDS011;447;51.332;6.778;2023-02-15T02:47:50;21.73;;;13.17;;
920;SDS011;447;51.332;6.778;2023-02-15T02:50:27;21.60;;;14.10;;
920;SDS011;447;51.332;6.778;2023-02-15T02:52:55;21.47;;;14.10;;
920;SDS011;447;51.332;6.778;2023-02-15T02:58:15;22.43;;;14.20;;
920;SDS011;447;51.332;6.778;2023-02-15T03:00:50;20.60;;;14.00;;
920;SDS011;447;51.332;6.778;2023-02-15T03:03:28;21.17;;;14.23;;
920;SDS011;447;51.332;6.778;2023-02-15T03:06:00;23.73;;;14.93;;
920;SDS011;447;51.332;6.778;2023-02-15T03:08:50;22.57;;;14.80;;
920;SDS011;447;51.332;6.778;2023-02-15T03:11:21;18.73;;;13.07;;
920;SDS011;447;51.332;6.778;2023-02-15T03:13:50;21.20;;;15.03;;
920;SDS011;447;51.332;6.778;2023-02-15T03:16:20;22.67;;;15.47;;
920;SDS011;447;51.332;6.778;2023-02-15T03:19:01;20.80;;;13.90;;
920;SDS011;447;51.332;6.778;2023-02-15T03:24:10;20.70;;;14.37;;
920;SDS011;447;51.332;6.778;2023-02-15T03:26:45;21.67;;;15.27;;
920;SDS011;447;51.332;6.778;2023-02-15T03:29:14;19.97;;;13.80;;
920;SDS011;447;51.332;6.778;2023-02-15T03:31:42;19.33;;;13.73;;
920;SDS011;447;51.332;6.778;2023-02-15T03:34:14;22.93;;;15.60;;
920;SDS011;447;51.332;6.778;2023-02-15T03:39:30;22.17;;;14.47;;
920;SDS011;447;51.332;6.778;2023-02-15T03:42:18;22.50;;;15.50;;
920;SDS011;447;51.332;6.778;2023-02-15T03:44:59;19.80;;;13.80;;
920;SDS011;447;51.332;6.778;2023-02-15T03:47:37;23.23;;;14.47;;
920;SDS011;447;51.332;6.778;2023-02-15T03:52:58;18.77;;;13.63;;
920;SDS011;447;51.332;6.778;2023-02-15T03:55:27;22.67;;;13.57;;
920;SDS011;447;51.332;6.778;2023-02-15T03:57:53;22.40;;;15.10;;
920;SDS011;447;51.332;6.778;2023-02-15T04:00:38;21.37;;;14.47;;
920;SDS011;447;51.332;6.778;2023-02-15T04:03:36;22.47;;;14.50;;
920;SDS011;447;51.332;6.778;2023-02-15T04:06:09;21.10;;;14.63;;
920;SDS011;447;51.332;6.778;2023-02-15T04:08:37;22.10;;;14.50;;
920;SDS011;447;51.332;6.778;2023-02-15T04:11:22;24.80;;;15.00;;
920;SDS011;447;51.332;6.778;2023-02-15T04:13:50;23.20;;;14.70;;
920;SDS011;447;51.332;6.778;2023-02-15T04:16:24;23.23;;;14.63;;
920;SDS011;447;51.332;6.778;2023-02-15T04:18:51;22.83;;;14.40;;
920;SDS011;447;51.332;6.778;2023-02-15T04:21:35;22.07;;;14.40;;
920;SDS011;447;51.332;6.778;2023-02-15T04:24:22;22.07;;;14.63;;
920;SDS011;447;51.332;6.778;2023-02-15T04:27:09;20.80;;;14.13;;
920;SDS011;447;51.332;6.778;2023-02-15T04:29:37;22.60;;;14.07;;
920;SDS011;447;51.332;6.778;2023-02-15T04:32:03;25.90;;;15.67;;
920;SDS011;447;51.332;6.778;2023-02-15T04:34:29;19.67;;;13.50;;
920;SDS011;447;51.332;6.778;2023-02-15T04:36:57;23.60;;;16.03;;
920;SDS011;447;51.332;6.778;2023-02-15T04:39:24;24.30;;;14.60;;
920;SDS011;447;51.332;6.778;2023-02-15T04:41:50;21.77;;;14.83;;
920;SDS011;447;51.332;6.778;2023-02-15T04:44:21;22.83;;;14.77;;
920;SDS011;447;51.332;6.778;2023-02-15T04:46:46;21.30;;;13.70;;
920;SDS011;447;51.332;6.778;2023-02-15T04:49:15;20.13;;;14.50;;
920;SDS011;447;51.332;6.778;2023-02-15T04:51:41;23.27;;;14.83;;
920;SDS011;447;51.332;6.778;2023-02-15T04:54:07;23.53;;;15.80;;
920;SDS011;447;51.332;6.778;2023-02-15T04:56:32;22.30;;;14.77;;
920;SDS011;447;51.332;6.778;2023-02-15T04:59:02;22.93;;;14.73;;
920;SDS011;447;51.332;6.778;2023-02-15T05:01:31;28.30;;;17.10;;
920;SDS011;447;51.332;6.778;2023-02-15T05:03:57;21.70;;;13.60;;
920;SDS011;447;51.332;6.778;2023-02-15T05:06:25;23.20;;;15.00;;
920;SDS011;447;51.332;6.778;2023-02-15T05:08:51;19.90;;;14.17;;
920;SDS011;447;51.332;6.778;2023-02-15T05:11:17;22.63;;;13.67;;
920;SDS011;447;51.332;6.778;2023-02-15T05:13:43;19.77;;;13.77;;
920;SDS011;447;51.332;6.778;2023-02-15T05:16:11;24.27;;;15.60;;
920;SDS011;447;51.332;6.778;2023-02-15T05:18:37;21.13;;;14.47;;
920;SDS011;447;51.332;6.778;2023-02-15T05:21:03;20.60;;;14.90;;
920;SDS011;447;51.332;6.778;2023-02-15T05:23:34;21.40;;;14.57;;
920;SDS011;447;51.332;6.778;2023-02-15T05:26:00;22.30;;;15.07;;
920;SDS011;447;51.332;6.778;2023-02-15T05:28:44;23.90;;;14.13;;
920;SDS011;447;51.332;6.778;2023-02-15T05:31:11;23.57;;;14.20;;
920;SDS011;447;51.332;6.778;2023-02-15T05:33:39;23.23;;;14.63;;
920;SDS011;447;51.332;6.778;2023-02-15T05:36:06;22.00;;;14.57;;
920;SDS011;447;51.332;6.778;2023-02-15T05:38:34;20.90;;;13.57;;
920;SDS011;447;51.332;6.778;2023-02-15T05:41:03;22.70;;;14.60;;
920;SDS011;447;51.332;6.778;2023-02-15T05:43:32;22.60;;;13.97;;
920;SDS011;447;51.332;6.778;2023-02-15T05:45:58;24.20;;;15.50;;
920;SDS011;447;51.332;6.778;2023-02-15T05:48:25;25.63;;;15.10;;
920;SDS011;447;51.332;6.778;2023-02-15T05:53:35;22.03;;;15.20;;
920;SDS011;447;51.332;6.778;2023-02-15T05:56:05;21.80;;;14.27;;
920;SDS011;447;51.332;6.778;2023-02-15T05:58:37;21.87;;;14.10;;
920;SDS011;447;51.332;6.778;2023-02-15T06:01:11;23.45;;;14.63;;
920;SDS011;447;51.332;6.778;2023-02-15T06:03:43;23.73;;;14.93;;
920;SDS011;447;51.332;6.778;2023-02-15T06:06:12;24.50;;;15.80;;
920;SDS011;447;51.332;6.778;2023-02-15T06:08:38;22.33;;;14.93;;
920;SDS011;447;51.332;6.778;2023-02-15T06:11:08;21.50;;;14.50;;
920;SDS011;447;51.332;6.778;2023-02-15T06:13:34;22.73;;;14.52;;
920;SDS011;447;51.332;6.778;2023-02-15T06:16:03;25.90;;;15.00;;
920;SDS011;447;51.332;6.778;2023-02-15T06:18:30;20.53;;;14.00;;
920;SDS011;447;51.332;6.778;2023-02-15T06:20:58;23.33;;;15.20;;
920;SDS011;447;51.332;6.778;2023-02-15T06:23:24;21.53;;;14.30;;
920;SDS011;447;51.332;6.778;2023-02-15T06:25:50;23.57;;;14.13;;
920;SDS011;447;51.332;6.778;2023-02-15T06:28:18;22.23;;;14.50;;
920;SDS011;447;51.332;6.778;2023-02-15T06:30:47;21.92;;;14.18;;
920;SDS011;447;51.332;6.778;2023-02-15T06:33:13;26.60;;;15.47;;
920;SDS011;447;51.332;6.778;2023-02-15T06:35:39;24.47;;;14.90;;
920;SDS011;447;51.332;6.778;2023-02-15T06:38:05;25.57;;;14.60;;
920;SDS011;447;51.332;6.778;2023-02-15T06:40:31;23.33;;;15.33;;
920;SDS011;447;51.332;6.778;2023-02-15T06:42:57;18.83;;;13.57;;
920;SDS011;447;51.332;6.778;2023-02-15T06:45:27;23.10;;;15.20;;
920;SDS011;447;51.332;6.778;2023-02-15T06:47:55;19.83;;;13.60;;
920;SDS011;447;51.332;6.778;2023-02-15T06:50:24;23.13;;;15.70;;
920;SDS011;447;51.332;6.778;2023-02-15T06:52:58;22.43;;;13.63;;
920;SDS011;447;51.332;6.778;2023-02-15T06:55:24;23.63;;;14.52;;
920;SDS011;447;51.332;6.778;2023-02-15T06:57:58;20.60;;;14.27;;
920;SDS011;447;51.332;6.778;2023-02-15T07:00:24;20.27;;;14.37;;
920;SDS011;447;51.332;6.778;2023-02-15T07:02:56;24.10;;;15.27;;
920;SDS011;447;51.332;6.778;2023-02-15T07:05:27;20.57;;;13.77;;
920;SDS011;447;51.332;6.778;2023-02-15T07:08:00;25.17;;;15.53;;
920;SDS011;447;51.332;6.778;2023-02-15T07:10:30;20.50;;;14.30;;
920;SDS011;447;51.332;6.778;2023-02-15T07:12:56;23.13;;;14.60;;
920;SDS011;447;51.332;6.778;2023-02-15T07:15:25;22.83;;;14.30;;
920;SDS011;447;51.332;6.778;2023-02-15T07:17:53;23.65;;;14.55;;
920;SDS011;447;51.332;6.778;2023-02-15T07:20:22;23.17;;;14.77;;
920;SDS011;447;51.332;6.778;2023-02-15T07:22:51;23.80;;;14.73;;
920;SDS011;447;51.332;6.778;2023-02-15T07:25:17;24.52;;;15.75;;
920;SDS011;447;51.332;6.778;2023-02-15T07:27:43;23.20;;;14.33;;
920;SDS011;447;51.332;6.778;2023-02-15T07:30:11;22.33;;;13.53;;
920;SDS011;447;51.332;6.778;2023-02-15T07:32:40;22.10;;;14.57;;
920;SDS011;447;51.332;6.778;2023-02-15T07:35:27;24.33;;;14.17;;
920;SDS011;447;51.332;6.778;2023-02-15T07:37:53;20.38;;;13.95;;
920;SDS011;447;51.332;6.778;2023-02-15T07:40:20;22.00;;;15.30;;
920;SDS011;447;51.332;6.778;2023-02-15T07:42:48;19.67;;;12.90;;
920;SDS011;447;51.332;6.778;2023-02-15T07:45:17;20.08;;;14.70;;
920;SDS011;447;51.332;6.778;2023-02-15T07:47:48;23.90;;;14.90;;
920;SDS011;447;51.332;6.778;2023-02-15T07:50:16;20.40;;;14.20;;
920;SDS011;447;51.332;6.778;2023-02-15T07:52:45;20.80;;;14.10;;
920;SDS011;447;51.332;6.778;2023-02-15T07:55:12;20.20;;;13.90;;
920;SDS011;447;51.332;6.778;2023-02-15T07:57:46;21.10;;;13.50;;
920;SDS011;447;51.332;6.778;2023-02-15T08:00:17;21.60;;;13.93;;
920;SDS011;447;51.332;6.778;2023-02-15T08:02:50;18.40;;;12.60;;
920;SDS011;447;51.332;6.778;2023-02-15T08:05:41;18.40;;;13.03;;
920;SDS011;447;51.332;6.778;2023-02-15T08:08:09;21.30;;;13.20;;
920;SDS011;447;51.332;6.778;2023-02-15T08:13:53;23.03;;;14.47;;
920;SDS011;447;51.332;6.778;2023-02-15T08:16:26;21.03;;;13.13;;
920;SDS011;447;51.332;6.778;2023-02-15T08:18:57;19.60;;;13.80;;
920;SDS011;447;51.332;6.778;2023-02-15T08:21:32;20.10;;;13.60;;
920;SDS011;447;51.332;6.778;2023-02-15T08:24:00;22.33;;;13.27;;
920;SDS011;447;51.332;6.778;2023-02-15T08:26:29;19.60;;;12.57;;
920;SDS011;447;51.332;6.778;2023-02-15T08:28:56;21.93;;;13.47;;
920;SDS011;447;51.332;6.778;2023-02-15T08:31:26;18.98;;;12.80;;
920;SDS011;447;51.332;6.778;2023-02-15T08:33:55;21.02;;;13.95;;
920;SDS011;447;51.332;6.778;2023-02-15T08:36:26;19.60;;;13.23;;
920;SDS011;447;51.332;6.778;2023-02-15T08:38:54;17.63;;;12.60;;
920;SDS011;447;51.332;6.778;2023-02-15T08:41:24;17.70;;;11.70;;
920;SDS011;447;51.332;6.778;2023-02-15T08:43:52;22.52;;;14.38;;
920;SDS011;447;51.332;6.778;2023-02-15T08:46:19;24.07;;;13.80;;
920;SDS011;447;51.332;6.778;2023-02-15T08:48:50;19.40;;;13.50;;
920;SDS011;447;51.332;6.778;2023-02-15T08:51:23;20.00;;;13.10;;
920;SDS011;447;51.332;6.778;2023-02-15T08:53:52;21.45;;;14.32;;
920;SDS011;447;51.332;6.778;2023-02-15T08:56:23;19.23;;;13.07;;
920;SDS011;447;51.332;6.778;2023-02-15T08:58:54;18.10;;;13.03;;
920;SDS011;447;51.332;6.778;2023-02-15T09:01:22;19.77;;;12.40;;
920;SDS011;447;51.332;6.778;2023-02-15T09:03:50;19.30;;;12.93;;
920;SDS011;447;51.332;6.778;2023-02-15T09:06:20;18.73;;;13.00;;
920;SDS011;447;51.332;6.778;2023-02-15T09:08:50;20.38;;;13.25;;
920;SDS011;447;51.332;6.778;2023-02-15T09:11:20;18.33;;;12.90;;
920;SDS011;447;51.332;6.778;2023-02-15T09:16:25;17.60;;;12.67;;
920;SDS011;447;51.332;6.778;2023-02-15T09:18:54;19.47;;;12.53;;
920;SDS011;447;51.332;6.778;2023-02-15T09:21:23;20.67;;;13.57;;
920;SDS011;447;51.332;6.778;2023-02-15T09:23:56;18.00;;;13.03;;
920;SDS011;447;51.332;6.778;2023-02-15T09:26:28;21.30;;;13.87;;
920;SDS011;447;51.332;6.778;2023-02-15T09:28:56;21.20;;;14.73;;
920;SDS011;447;51.332;6.778;2023-02-15T09:31:28;18.37;;;11.83;;
920;SDS011;447;51.332;6.778;2023-02-15T09:33:55;19.95;;;12.70;;
920;SDS011;447;51.332;6.778;2023-02-15T09:36:31;21.45;;;12.95;;
920;SDS011;447;51.332;6.778;2023-02-15T09:39:12;18.80;;;12.50;;
920;SDS011;447;51.332;6.778;2023-02-15T09:47:18;18.90;;;12.60;;
920;SDS011;447;51.332;6.778;2023-02-15T09:55:18;18.43;;;12.30;;
920;SDS011;447;51.332;6.778;2023-02-15T09:58:04;20.40;;;11.50;;
920;SDS011;447;51.332;6.778;2023-02-15T10:06:27;16.70;;;12.23;;
920;SDS011;447;51.332;6.778;2023-02-15T10:12:16;18.40;;;12.40;;
920;SDS011;447;51.332;6.778;2023-02-15T10:20:59;17.73;;;11.90;;
920;SDS011;447;51.332;6.778;2023-02-15T10:26:28;18.23;;;11.50;;
920;SDS011;447;51.332;6.778;2023-02-15T10:29:35;15.47;;;11.20;;
920;SDS011;447;51.332;6.778;2023-02-15T10:32:13;17.95;;;11.20;;
920;SDS011;447;51.332;6.778;2023-02-15T10:45:40;20.10;;;11.63;;
920;SDS011;447;51.332;6.778;2023-02-15T10:51:03;20.58;;;12.20;;
920;SDS011;447;51.332;6.778;2023-02-15T10:56:41;17.67;;;12.43;;
920;SDS011;447;51.332;6.778;2023-02-15T11:13:14;21.07;;;12.00;;
920;SDS011;447;51.332;6.778;2023-02-15T11:15:48;18.90;;;11.70;;
920;SDS011;447;51.332;6.778;2023-02-15T11:23:51;17.27;;;11.37;;
920;SDS011;447;51.332;6.778;2023-02-15T11:27:03;17.33;;;9.90;;
920;SDS011;447;51.332;6.778;2023-02-15T11:29:27;16.80;;;11.30;;
920;SDS011;447;51.332;6.778;2023-02-15T11:31:56;16.53;;;10.67;;
920;SDS011;447;51.332;6.778;2023-02-15T11:37:23;17.67;;;11.60;;
920;SDS011;447;51.332;6.778;2023-02-15T11:39:54;17.93;;;11.53;;
920;SDS011;447;51.332;6.778;2023-02-15T11:42:23;17.23;;;11.13;;
920;SDS011;447;51.332;6.778;2023-02-15T11:45:04;17.20;;;11.13;;
920;SDS011;447;51.332;6.778;2023-02-15T11:47:42;16.50;;;10.90;;
920;SDS011;447;51.332;6.778;2023-02-15T11:50:15;16.40;;;11.93;;
920;SDS011;447;51.332;6.778;2023-02-15T11:52:48;16.73;;;10.93;;
920;SDS011;447;51.332;6.778;2023-02-15T11:55:19;20.57;;;11.37;;
920;SDS011;447;51.332;6.778;2023-02-15T12:00:43;14.80;;;10.80;;
920;SDS011;447;51.332;6.778;2023-02-15T12:03:18;15.50;;;10.47;;
920;SDS011;447;51.332;6.778;2023-02-15T12:05:53;17.50;;;11.17;;
920;SDS011;447;51.332;6.778;2023-02-15T12:08:31;17.30;;;10.87;;
920;SDS011;447;51.332;6.778;2023-02-15T12:11:15;15.80;;;10.77;;
920;SDS011;447;51.332;6.778;2023-02-15T12:13:59;15.93;;;9.80;;
920;SDS011;447;51.332;6.778;2023-02-15T12:16:27;16.63;;;10.77;;
920;SDS011;447;51.332;6.778;2023-02-15T12:18:58;16.60;;;10.87;;
920;SDS011;447;51.332;6.778;2023-02-15T12:21:33;14.87;;;9.80;;
920;SDS011;447;51.332;6.778;2023-02-15T12:24:18;15.60;;;10.40;;
920;SDS011;447;51.332;6.778;2023-02-15T12:26:55;13.70;;;9.97;;
920;SDS011;447;51.332;6.778;2023-02-15T12:29:31;15.40;;;9.60;;
920;SDS011;447;51.332;6.778;2023-02-15T12:32:09;13.17;;;10.30;;
920;SDS011;447;51.332;6.778;2023-02-15T12:34:46;13.63;;;9.80;;
920;SDS011;447;51.332;6.778;2023-02-15T12:37:17;17.90;;;11.53;;
920;SDS011;447;51.332;6.778;2023-02-15T12:42:23;15.80;;;10.60;;
920;SDS011;447;51.332;6.778;2023-02-15T12:47:23;15.17;;;10.33;;
920;SDS011;447;51.332;6.778;2023-02-15T12:52:44;14.47;;;9.60;;
920;SDS011;447;51.332;6.778;2023-02-15T12:58:33;13.67;;;10.27;;
920;SDS011;447;51.332;6.778;2023-02-15T13:03:54;14.10;;;10.00;;
920;SDS011;447;51.332;6.778;2023-02-15T13:06:29;15.33;;;9.67;;
920;SDS011;447;51.332;6.778;2023-02-15T13:09:06;18.20;;;9.63;;
920;SDS011;447;51.332;6.778;2023-02-15T13:11:51;17.27;;;10.77;;
920;SDS011;447;51.332;6.778;2023-02-15T13:16:48;15.30;;;9.83;;
920;SDS011;447;51.332;6.778;2023-02-15T13:21:54;14.57;;;10.47;;
920;SDS011;447;51.332;6.778;2023-02-15T13:24:27;11.90;;;8.83;;
920;SDS011;447;51.332;6.778;2023-02-15T13:27:01;13.80;;;9.40;;
920;SDS011;447;51.332;6.778;2023-02-15T13:29:30;13.27;;;9.73;;
920;SDS011;447;51.332;6.778;2023-02-15T13:32:07;14.37;;;8.93;;
920;SDS011;447;51.332;6.778;2023-02-15T13:34:56;15.43;;;10.20;;
920;SDS011;447;51.332;6.778;2023-02-15T13:42:49;15.47;;;9.80;;
920;SDS011;447;51.332;6.778;2023-02-15T13:48:21;14.57;;;9.27;;
920;SDS011;447;51.332;6.778;2023-02-15T13:59:01;15.20;;;9.67;;
920;SDS011;447;51.332;6.778;2023-02-15T14:07:19;13.53;;;8.97;;
920;SDS011;447;51.332;6.778;2023-02-15T14:10:10;15.23;;;9.17;;
920;SDS011;447;51.332;6.778;2023-02-15T14:23:40;15.43;;;9.13;;
920;SDS011;447;51.332;6.778;2023-02-15T14:31:47;24.33;;;11.50;;
920;SDS011;447;51.332;6.778;2023-02-15T14:37:02;21.00;;;9.77;;
920;SDS011;447;51.332;6.778;2023-02-15T14:39:52;18.57;;;9.80;;
920;SDS011;447;51.332;6.778;2023-02-15T14:43:02;17.00;;;9.60;;
920;SDS011;447;51.332;6.778;2023-02-15T14:45:40;14.93;;;9.30;;
920;SDS011;447;51.332;6.778;2023-02-15T14:56:45;12.90;;;8.77;;
920;SDS011;447;51.332;6.778;2023-02-15T15:02:29;17.50;;;9.17;;
920;SDS011;447;51.332;6.778;2023-02-15T15:07:48;15.50;;;9.40;;
920;SDS011;447;51.332;6.778;2023-02-15T15:15:31;11.43;;;8.30;;
920;SDS011;447;51.332;6.778;2023-02-15T15:18:10;11.80;;;8.63;;
920;SDS011;447;51.332;6.778;2023-02-15T15:21:09;14.47;;;8.90;;
920;SDS011;447;51.332;6.778;2023-02-15T15:31:18;13.87;;;8.30;;
920;SDS011;447;51.332;6.778;2023-02-15T15:50:41;13.23;;;8.43;;
920;SDS011;447;51.332;6.778;2023-02-15T15:53:22;14.43;;;8.77;;
920;SDS011;447;51.332;6.778;2023-02-15T15:55:54;13.80;;;9.30;;
920;SDS011;447;51.332;6.778;2023-02-15T15:58:56;10.80;;;8.40;;
920;SDS011;447;51.332;6.778;2023-02-15T16:01:27;14.10;;;9.57;;
920;SDS011;447;51.332;6.778;2023-02-15T16:04:00;12.73;;;8.40;;
920;SDS011;447;51.332;6.778;2023-02-15T16:06:27;15.03;;;9.40;;
920;SDS011;447;51.332;6.778;2023-02-15T16:09:11;10.20;;;7.60;;
920;SDS011;447;51.332;6.778;2023-02-15T16:11:47;10.83;;;7.90;;
920;SDS011;447;51.332;6.778;2023-02-15T16:14:35;11.63;;;7.77;;
920;SDS011;447;51.332;6.778;2023-02-15T16:17:04;12.23;;;7.40;;
920;SDS011;447;51.332;6.778;2023-02-15T16:19:35;13.90;;;8.40;;
920;SDS011;447;51.332;6.778;2023-02-15T16:22:04;11.50;;;8.20;;
920;SDS011;447;51.332;6.778;2023-02-15T16:30:16;12.70;;;9.17;;
920;SDS011;447;51.332;6.778;2023-02-15T16:32:42;11.67;;;7.50;;
920;SDS011;447;51.332;6.778;2023-02-15T16:35:18;10.50;;;8.27;;
920;SDS011;447;51.332;6.778;2023-02-15T16:37:45;11.30;;;7.73;;
920;SDS011;447;51.332;6.778;2023-02-15T16:42:51;11.83;;;8.00;;
920;SDS011;447;51.332;6.778;2023-02-15T16:45:25;12.93;;;7.90;;
920;SDS011;447;51.332;6.778;2023-02-15T16:47:56;10.70;;;7.83;;
920;SDS011;447;51.332;6.778;2023-02-15T16:53:04;11.90;;;7.77;;
920;SDS011;447;51.332;6.778;2023-02-15T16:55:39;13.07;;;9.07;;
920;SDS011;447;51.332;6.778;2023-02-15T16:58:11;10.00;;;7.47;;
920;SDS011;447;51.332;6.778;2023-02-15T17:00:42;9.07;;;7.00;;
920;SDS011;447;51.332;6.778;2023-02-15T17:05:41;10.90;;;7.43;;
920;SDS011;447;51.332;6.778;2023-02-15T17:13:24;10.37;;;7.70;;
920;SDS011;447;51.332;6.778;2023-02-15T17:18:32;12.40;;;7.57;;
920;SDS011;447;51.332;6.778;2023-02-15T17:21:24;12.17;;;7.70;;
920;SDS011;447;51.332;6.778;2023-02-15T17:23:59;11.67;;;7.60;;
920;SDS011;447;51.332;6.778;2023-02-15T17:26:37;13.23;;;8.40;;
920;SDS011;447;51.332;6.778;2023-02-15T17:32:12;11.50;;;7.40;;
920;SDS011;447;51.332;6.778;2023-02-15T17:40:07;13.40;;;8.00;;
920;SDS011;447;51.332;6.778;2023-02-15T17:42:50;10.77;;;6.87;;
920;SDS011;447;51.332;6.778;2023-02-15T17:45:17;12.53;;;7.40;;
920;SDS011;447;51.332;6.778;2023-02-15T17:47:46;8.60;;;7.00;;
920;SDS011;447;51.332;6.778;2023-02-15T17:50:17;12.13;;;7.40;;
920;SDS011;447;51.332;6.778;2023-02-15T17:52:49;10.60;;;7.50;;
920;SDS011;447;51.332;6.778;2023-02-15T17:55:21;8.93;;;6.37;;
920;SDS011;447;51.332;6.778;2023-02-15T17:58:07;12.57;;;8.40;;
920;SDS011;447;51.332;6.778;2023-02-15T18:00:36;10.30;;;7.30;;
920;SDS011;447;51.332;6.778;2023-02-15T18:03:24;9.47;;;6.73;;
920;SDS011;447;51.332;6.778;2023-02-15T18:06:14;11.50;;;7.80;;
920;SDS011;447;51.332;6.778;2023-02-15T18:09:04;7.90;;;6.97;;
920;SDS011;447;51.332;6.778;2023-02-15T18:11:52;11.03;;;7.87;;
920;SDS011;447;51.332;6.778;2023-02-15T18:14:23;9.50;;;6.90;;
920;SDS011;447;51.332;6.778;2023-02-15T18:16:49;9.97;;;7.50;;
920;SDS011;447;51.332;6.778;2023-02-15T18:19:20;10.60;;;8.27;;
920;SDS011;447;51.332;6.778;2023-02-15T18:21:52;9.23;;;7.23;;
920;SDS011;447;51.332;6.778;2023-02-15T18:24:22;12.23;;;8.23;;
920;SDS011;447;51.332;6.778;2023-02-15T18:26:51;13.30;;;8.40;;
920;SDS011;447;51.332;6.778;2023-02-15T18:29:18;9.20;;;7.13;;
920;SDS011;447;51.332;6.778;2023-02-15T18:31:50;9.47;;;7.07;;
920;SDS011;447;51.332;6.778;2023-02-15T18:36:55;10.07;;;7.67;;
920;SDS011;447;51.332;6.778;2023-02-15T18:41:58;9.37;;;7.50;;
920;SDS011;447;51.332;6.778;2023-02-15T18:44:24;16.73;;;8.37;;
920;SDS011;447;51.332;6.778;2023-02-15T18:46:51;12.10;;;8.60;;
920;SDS011;447;51.332;6.778;2023-02-15T18:49:17;9.83;;;7.60;;
920;SDS011;447;51.332;6.778;2023-02-15T18:51:45;11.77;;;7.80;;
920;SDS011;447;51.332;6.778;2023-02-15T18:54:17;11.33;;;8.10;;
920;SDS011;447;51.332;6.778;2023-02-15T18:56:48;11.10;;;7.90;;
920;SDS011;447;51.332;6.778;2023-02-15T18:59:21;11.67;;;8.40;;
920;SDS011;447;51.332;6.778;2023-02-15T19:01:52;10.57;;;7.20;;
920;SDS011;447;51.332;6.778;2023-02-15T19:04:19;12.57;;;8.43;;
920;SDS011;447;51.332;6.778;2023-02-15T19:06:47;11.03;;;8.37;;
920;SDS011;447;51.332;6.778;2023-02-15T19:09:20;10.67;;;8.00;;
920;SDS011;447;51.332;6.778;2023-02-15T19:11:51;12.67;;;9.00;;
920;SDS011;447;51.332;6.778;2023-02-15T19:14:25;11.23;;;7.53;;
920;SDS011;447;51.332;6.778;2023-02-15T19:16:55;13.90;;;7.70;;
920;SDS011;447;51.332;6.778;2023-02-15T19:19:22;12.10;;;8.90;;
920;SDS011;447;51.332;6.778;2023-02-15T19:21:49;10.83;;;8.27;;
920;SDS011;447;51.332;6.778;2023-02-15T19:24:32;16.90;;;8.23;;
920;SDS011;447;51.332;6.778;2023-02-15T19:27:14;11.17;;;8.43;;
920;SDS011;447;51.332;6.778;2023-02-15T19:29:45;12.57;;;7.63;;
920;SDS011;447;51.332;6.778;2023-02-15T19:32:11;13.80;;;8.77;;
920;SDS011;447;51.332;6.778;2023-02-15T19:34:37;14.40;;;9.43;;
920;SDS011;447;51.332;6.778;2023-02-15T19:37:06;11.63;;;8.10;;
920;SDS011;447;51.332;6.778;2023-02-15T19:39:43;9.90;;;7.60;;
920;SDS011;447;51.332;6.778;2023-02-15T19:42:13;11.60;;;7.80;;
920;SDS011;447;51.332;6.778;2023-02-15T19:44:40;12.80;;;8.53;;
920;SDS011;447;51.332;6.778;2023-02-15T19:47:12;12.67;;;8.47;;
920;SDS011;447;51.332;6.778;2023-02-15T19:49:43;12.13;;;8.77;;
920;SDS011;447;51.332;6.778;2023-02-15T19:52:16;11.93;;;9.27;;
920;SDS011;447;51.332;6.778;2023-02-15T19:54:47;13.77;;;9.90;;
920;SDS011;447;51.332;6.778;2023-02-15T19:57:16;12.37;;;9.60;;
920;SDS011;447;51.332;6.778;2023-02-15T19:59:43;11.23;;;7.53;;